Time;durP1;ratioP1;P1;durP2;ratioP2;P2;SDS_P1;SDS_P2;PMS_P1;PMS_P2;Temp;Humidity;BMP_temperature;BMP_pressure;BME280_temperature;BME280_humidity;BME280_pressure;Samples;Min_cycle;Max_cycle;Signal;HPM_P1;HPM_P2
2021/06/11 00:02:16;;;;;;;;;;;;;;;17.24;100.00;99195.38;5075706;28;20009;-81
2021/06/11 00:04:58;;;;;;;;;;;;;;;17.21;100.00;99211.22;5076957;28;19924;-81
2021/06/11 00:07:26;;;;;;;;;;;;;;;17.20;100.00;99208.88;5075806;28;19929;-81
2021/06/11 00:09:53;;;;;;;;;;;;;;;17.20;100.00;99206.06;5076747;28;19947;-81
2021/06/11 00:12:20;;;;;;;;;;;;;;;17.14;100.00;99205.09;5058863;28;20058;-81
2021/06/11 00:14:48;;;;;;;;;;;;;;;17.14;100.00;99205.09;5076906;28;19931;-81
2021/06/11 00:17:15;;;;;;;;;;;;;;;17.08;100.00;99212.59;5076963;28;19925;-81
2021/06/11 00:19:42;;;;;;;;;;;;;;;17.09;100.00;99211.31;5076860;28;19924;-81
2021/06/11 00:22:09;;;;;;;;;;;;;;;17.06;100.00;99209.44;5062834;28;19931;-81
2021/06/11 00:24:36;;;;;;;;;;;;;;;17.08;100.00;99206.94;5075259;28;19928;-81
2021/06/11 00:27:04;;;;;;;;;;;;;;;17.11;100.00;99206.81;5075469;28;20017;-81
2021/06/11 00:29:31;;;;;;;;;;;;;;;17.06;100.00;99209.44;5076941;28;19925;-81
2021/06/11 00:31:58;;;;;;;;;;;;;;;17.00;100.00;99222.56;5069209;28;21891;-81
2021/06/11 00:34:25;;;;;;;;;;;;;;;17.05;100.00;99211.50;5074987;28;20310;-81
2021/06/11 00:36:53;;;;;;;;;;;;;;;17.03;100.00;99221.66;5076525;28;20016;-81
2021/06/11 00:39:21;;;;;;;;;;;;;;;17.05;100.00;99222.78;5076312;28;20023;-81
2021/06/11 00:41:48;;;;;;;;;;;;;;;17.06;100.00;99217.91;5076409;28;19928;-82
2021/06/11 00:44:16;;;;;;;;;;;;;;;17.05;100.00;99221.97;5075084;28;19929;-81
2021/06/11 00:46:43;;;;;;;;;;;;;;;16.99;100.00;99216.16;5076401;28;20007;-81
2021/06/11 00:49:10;;;;;;;;;;;;;;;17.02;100.00;99220.09;5076129;28;20035;-81
2021/06/11 00:51:38;;;;;;;;;;;;;;;17.00;100.00;99212.09;5076477;28;20019;-81
2021/06/11 00:54:05;;;;;;;;;;;;;;;17.02;100.00;99220.09;5108841;28;19924;-81
2021/06/11 00:56:32;;;;;;;;;;;;;;;16.96;100.00;99216.28;5075025;28;19924;-81
2021/06/11 00:59:00;;;;;;;;;;;;;;;16.93;100.00;99215.19;5076237;28;19970;-81
2021/06/11 01:01:27;;;;;;;;;;;;;;;16.97;100.00;99206.56;5106747;28;19928;-82
2021/06/11 01:03:54;;;;;;;;;;;;;;;16.85;100.00;99199.78;5076248;28;19924;-81
2021/06/11 01:06:21;;;;;;;;;;;;;;;16.87;100.00;99202.13;5075984;28;19948;-81
2021/06/11 01:08:50;;;;;;;;;;;;;;;16.83;100.00;99207.13;5076151;28;19925;-81
2021/06/11 01:11:20;;;;;;;;;;;;;;;16.83;100.00;99195.81;5074714;28;19925;-81
2021/06/11 01:13:47;;;;;;;;;;;;;;;16.75;100.00;99197.38;5074753;28;20011;-80
2021/06/11 01:16:15;;;;;;;;;;;;;;;16.71;100.00;99193.88;5074764;28;19928;-81
2021/06/11 01:18:42;;;;;;;;;;;;;;;16.69;100.00;99196.41;5076023;28;19974;-81
2021/06/11 01:21:09;;;;;;;;;;;;;;;16.70;100.00;99192.31;5066484;28;19960;-81
2021/06/11 01:23:59;;;;;;;;;;;;;;;16.64;100.00;99194.16;5084109;28;19929;-80
2021/06/11 01:26:31;;;;;;;;;;;;;;;16.59;100.00;99181.44;5075310;28;19931;-79
2021/06/11 01:29:00;;;;;;;;;;;;;;;16.54;100.00;99184.09;5108165;28;20351;-79
2021/06/11 01:31:28;;;;;;;;;;;;;;;16.50;100.00;99187.03;5075327;28;20375;-79
2021/06/11 01:33:59;;;;;;;;;;;;;;;16.51;100.00;99187.84;5075082;28;19936;-79
2021/06/11 01:36:28;;;;;;;;;;;;;;;16.50;100.00;99189.06;5057469;28;20345;-79
2021/06/11 01:38:56;;;;;;;;;;;;;;;16.59;100.00;99177.81;5072935;28;19975;-79
2021/06/11 01:41:24;;;;;;;;;;;;;;;16.64;100.00;99177.25;5062378;28;19978;-79
2021/06/11 01:43:53;;;;;;;;;;;;;;;16.61;100.00;99178.16;5073872;28;19924;-79
2021/06/11 01:46:22;;;;;;;;;;;;;;;16.63;100.00;99181.31;5074959;28;20021;-79
2021/06/11 01:48:50;;;;;;;;;;;;;;;16.61;100.00;99173.31;5074920;28;19977;-79
2021/06/11 01:51:18;;;;;;;;;;;;;;;16.60;100.00;99177.38;5074591;28;19982;-79
2021/06/11 01:53:46;;;;;;;;;;;;;;;16.60;100.00;99177.38;5107452;28;19928;-79
2021/06/11 01:56:15;;;;;;;;;;;;;;;16.65;100.00;99179.59;5073475;28;19931;-79
2021/06/11 01:58:43;;;;;;;;;;;;;;;16.60;100.00;99182.25;5107203;28;20407;-79
2021/06/11 02:01:11;;;;;;;;;;;;;;;16.57;100.00;99178.28;5073397;28;20019;-79
2021/06/11 02:03:39;;;;;;;;;;;;;;;16.56;100.00;99175.94;5074638;28;19925;-79
2021/06/11 02:06:08;;;;;;;;;;;;;;;16.53;100.00;99182.50;5074374;28;20014;-79
2021/06/11 02:08:35;;;;;;;;;;;;;;;16.48;100.00;99171.81;5073358;28;20014;-79
2021/06/11 02:11:02;;;;;;;;;;;;;;;16.44;100.00;99180.41;5074250;28;20348;-79
2021/06/11 02:13:30;;;;;;;;;;;;;;;16.45;100.00;99178.41;5075549;28;19931;-79
2021/06/11 02:15:58;;;;;;;;;;;;;;;16.39;100.00;99169.69;5074433;28;19925;-79
2021/06/11 02:18:25;;;;;;;;;;;;;;;16.40;100.00;99162.03;5074156;28;19930;-79
2021/06/11 02:20:53;;;;;;;;;;;;;;;16.37;100.00;99169.38;5074142;28;19924;-79
2021/06/11 02:23:20;;;;;;;;;;;;;;;16.25;100.00;99168.19;5106673;28;19986;-79
2021/06/11 02:25:47;;;;;;;;;;;;;;;16.25;100.00;99150.50;5072974;28;20382;-79
2021/06/11 02:28:16;;;;;;;;;;;;;;;16.17;100.00;99149.19;5073909;28;20023;-79
2021/06/11 02:30:44;;;;;;;;;;;;;;;16.13;100.00;99157.75;5073994;28;20022;-79
2021/06/11 02:33:12;;;;;;;;;;;;;;;16.13;100.00;99154.94;5073818;28;19924;-79
2021/06/11 02:35:40;;;;;;;;;;;;;;;16.13;100.00;99154.94;5073971;28;20439;-79
2021/06/11 02:38:07;;;;;;;;;;;;;;;16.03;100.00;99160.97;5056128;28;19924;-79
2021/06/11 02:40:34;;;;;;;;;;;;;;;15.99;100.00;99166.72;5073938;28;19931;-79
2021/06/11 02:43:12;;;;;;;;;;;;;;;16.03;100.00;99156.13;5073906;28;19971;-79
2021/06/11 02:45:54;;;;;;;;;;;;;;;16.05;100.00;99162.06;5073784;28;19925;-79
2021/06/11 03:00:29;;;;;;;;;;;;;;;16.00;100.00;99162.69;5034726;28;19931;-80
2021/06/11 03:03:08;;;;;;;;;;;;;;;16.02;100.00;99151.72;5053333;28;19924;-79
2021/06/11 03:05:35;;;;;;;;;;;;;;;15.93;100.00;99146.00;5035752;28;19932;-79
2021/06/11 03:08:08;;;;;;;;;;;;;;;15.92;100.00;99152.91;5053364;28;20473;-79
2021/06/11 03:10:36;;;;;;;;;;;;;;;15.94;100.00;99158.88;5035918;28;20261;-79
2021/06/11 03:13:04;;;;;;;;;;;;;;;15.94;100.00;99147.59;5052817;28;19929;-79
2021/06/11 03:15:33;;;;;;;;;;;;;;;16.00;100.00;99157.06;5035579;28;20392;-79
2021/06/11 03:18:02;;;;;;;;;;;;;;;15.96;100.00;99150.75;5053141;28;19925;-80
2021/06/11 03:20:32;;;;;;;;;;;;;;;15.96;100.00;99147.91;5053267;28;19928;-79
2021/06/11 03:23:07;;;;;;;;;;;;;;;15.99;100.00;99157.50;5052511;28;19925;-79
2021/06/11 03:25:43;;;;;;;;;;;;;;;16.00;100.00;99159.88;5051809;28;20033;-79
2021/06/11 03:28:22;;;;;;;;;;;;;;;16.01;100.00;99163.44;5035214;28;20020;-79
2021/06/11 03:30:55;;;;;;;;;;;;;;;15.95;100.00;99154.81;5053322;28;19975;-79
2021/06/11 03:33:25;;;;;;;;;;;;;;;15.94;100.00;99152.44;5053034;28;20387;-79
2021/06/11 03:36:00;;;;;;;;;;;;;;;15.94;100.00;99153.25;5035330;28;19925;-79
2021/06/11 03:38:29;;;;;;;;;;;;;;;15.92;100.00;99155.72;5035500;28;19925;-79
2021/06/11 03:40:57;;;;;;;;;;;;;;;16.01;100.00;99150.16;5068777;28;20276;-79
2021/06/11 03:43:26;;;;;;;;;;;;;;;15.96;100.00;99156.38;5017357;28;20008;-79
2021/06/11 03:45:54;;;;;;;;;;;;;;;16.05;100.00;99156.44;5053118;28;19925;-79
2021/06/11 03:48:24;;;;;;;;;;;;;;;16.03;100.00;99155.34;5068644;28;20456;-79
2021/06/11 03:50:52;;;;;;;;;;;;;;;16.15;100.00;99146.03;5053128;28;19928;-79
2021/06/11 03:53:21;;;;;;;;;;;;;;;16.13;100.00;99154.94;5068339;28;20296;-79
2021/06/11 03:55:48;;;;;;;;;;;;;;;16.19;100.00;99146.72;5052932;28;20276;-79
2021/06/11 03:58:18;;;;;;;;;;;;;;;16.19;100.00;99135.44;5052839;28;19924;-79
2021/06/11 04:00:46;;;;;;;;;;;;;;;16.21;100.00;99130.91;5052779;28;19932;-79
2021/06/11 04:03:14;;;;;;;;;;;;;;;16.20;100.00;99120.06;5053033;28;19925;-79
2021/06/11 04:05:41;;;;;;;;;;;;;;;16.23;100.00;99130.44;5034983;28;19971;-79
2021/06/11 04:08:10;;;;;;;;;;;;;;;16.23;100.00;99117.13;5053066;28;19929;-79
2021/06/11 04:10:43;;;;;;;;;;;;;;;16.14;100.00;99128.34;5052634;28;20340;-79
2021/06/11 04:13:17;;;;;;;;;;;;;;;16.16;100.00;99120.19;5052466;28;19995;-79
2021/06/11 04:15:47;;;;;;;;;;;;;;;16.17;100.00;99127.44;5052862;28;19936;-79
2021/06/11 04:18:18;;;;;;;;;;;;;;;16.16;100.00;99125.06;5035035;28;19928;-79
2021/06/11 04:20:48;;;;;;;;;;;;;;;16.18;100.00;99119.75;5052826;28;19951;-79
2021/06/11 04:23:15;;;;;;;;;;;;;;;16.21;100.00;99119.63;5034758;28;19935;-79
2021/06/11 04:25:43;;;;;;;;;;;;;;;16.24;100.00;99103.81;5034921;28;19975;-79
2021/06/11 04:28:11;;;;;;;;;;;;;;;16.23;100.00;99103.03;5034681;28;19925;-79
2021/06/11 04:30:38;;;;;;;;;;;;;;;16.24;100.00;99107.41;5035020;28;20349;-79
2021/06/11 04:33:20;;;;;;;;;;;;;;;16.27;100.00;99100.84;5034769;28;20352;-79
2021/06/11 04:35:47;;;;;;;;;;;;;;;16.27;100.00;99109.31;5070544;28;19924;-79
2021/06/11 04:38:15;;;;;;;;;;;;;;;16.27;100.00;99106.50;5038437;28;19931;-79
2021/06/11 04:40:42;;;;;;;;;;;;;;;16.31;100.00;99105.56;5055999;28;19925;-79
2021/06/11 04:43:09;;;;;;;;;;;;;;;16.34;100.00;99118.75;5056053;28;20007;-79
2021/06/11 04:45:37;;;;;;;;;;;;;;;16.33;100.00;99105.91;5038098;28;19925;-79
2021/06/11 04:48:05;;;;;;;;;;;;;;;16.36;100.00;99102.16;5071351;28;20287;-80
2021/06/11 04:50:32;;;;;;;;;;;;;;;16.29;100.00;99117.31;5038347;28;20395;-79
2021/06/11 04:52:59;;;;;;;;;;;;;;;16.25;100.00;99117.44;5056030;28;20372;-79
2021/06/11 04:55:27;;;;;;;;;;;;;;;16.27;100.00;99113.41;5037850;28;20368;-79
2021/06/11 04:57:54;;;;;;;;;;;;;;;16.25;100.00;99113.84;5056011;28;20023;-79
2021/06/11 05:00:24;;;;;;;;;;;;;;;16.34;100.00;99102.63;5055634;28;20011;-79
2021/06/11 05:02:51;;;;;;;;;;;;;;;16.25;100.00;99102.56;5055879;28;19929;-79
2021/06/11 05:05:18;;;;;;;;;;;;;;;16.32;100.00;99112.78;5055667;28;19940;-79
2021/06/11 05:07:45;;;;;;;;;;;;;;;16.25;100.00;99105.41;5055670;28;19932;-79
2021/06/11 05:10:14;;;;;;;;;;;;;;;16.33;100.00;99105.91;5070840;28;19925;-79
2021/06/11 05:12:42;;;;;;;;;;;;;;;16.43;100.00;99088.56;5055356;28;19932;-79
2021/06/11 05:15:09;;;;;;;;;;;;;;;16.37;100.00;99095.28;5070979;28;19931;-79
2021/06/11 05:17:37;;;;;;;;;;;;;;;16.33;100.00;99089.75;5037734;28;19971;-79
2021/06/11 05:20:04;;;;;;;;;;;;;;;16.33;100.00;99086.19;5037790;28;19932;-79
2021/06/11 05:22:31;;;;;;;;;;;;;;;16.30;100.00;99079.41;5055348;28;19925;-79
2021/06/11 05:25:00;;;;;;;;;;;;;;;16.31;100.00;99075.34;5037703;28;19925;-79
2021/06/11 05:27:27;;;;;;;;;;;;;;;16.33;100.00;99078.47;5055382;28;20075;-79
2021/06/11 05:29:55;;;;;;;;;;;;;;;16.35;100.00;99092.13;5055347;28;20423;-79
2021/06/11 05:32:22;;;;;;;;;;;;;;;16.36;100.00;99076.78;5055023;28;19927;-79
2021/06/11 05:34:49;;;;;;;;;;;;;;;16.37;100.00;99078.34;5037251;28;20253;-79
2021/06/11 05:37:17;;;;;;;;;;;;;;;16.45;100.00;99082.50;5037262;28;20071;-79
2021/06/11 05:39:44;;;;;;;;;;;;;;;16.48;100.00;99098.50;5054882;28;19935;-79
2021/06/11 05:42:11;;;;;;;;;;;;;;;16.52;100.00;99083.00;5017278;28;19931;-79
2021/06/11 05:44:38;;;;;;;;;;;;;;;16.64;100.00;99081.34;5050097;28;19944;-79
2021/06/11 05:47:05;;;;;;;;;;;;;;;16.72;100.00;99089.03;5054022;28;19929;-80
2021/06/11 05:49:32;;;;;;;;;;;;;;;16.76;100.00;99092.53;5054875;28;19932;-79
2021/06/11 05:52:00;;;;;;;;;;;;;;;16.75;100.00;99090.16;5054714;28;19925;-79
2021/06/11 05:54:28;;;;;;;;;;;;;;;16.77;100.00;99098.94;5054448;28;19932;-79
2021/06/11 05:56:58;;;;;;;;;;;;;;;16.68;100.00;99107.34;5054517;28;19925;-79
2021/06/11 05:59:25;;;;;;;;;;;;;;;16.64;100.00;99098.25;5054554;28;19925;-79
2021/06/11 06:01:52;;;;;;;;;;;;;;;16.55;100.00;99096.19;5036820;28;19925;-79
2021/06/11 06:04:19;;;;;;;;;;;;;;;16.57;100.00;99098.53;5054439;28;19986;-79
2021/06/11 06:06:47;;;;;;;;;;;;;;;16.52;100.00;99097.13;5054444;28;19987;-79
2021/06/11 06:09:14;;;;;;;;;;;;;;;16.45;100.00;99102.25;5036375;28;19932;-79
2021/06/11 06:11:41;;;;;;;;;;;;;;;16.40;100.00;99091.53;5054527;28;19932;-86
2021/06/11 06:14:09;;;;;;;;;;;;;;;16.40;100.00;99097.16;5036682;28;20428;-80
2021/06/11 06:16:36;;;;;;;;;;;;;;;16.33;100.00;99094.63;5036616;28;20413;-79
2021/06/11 06:19:04;;;;;;;;;;;;;;;16.30;100.00;99081.47;5069659;28;19925;-79
2021/06/11 06:21:32;;;;;;;;;;;;;;;16.32;100.00;99088.19;5054229;28;20060;-79
2021/06/11 06:24:00;;;;;;;;;;;;;;;16.37;100.00;99084.78;5053937;28;19929;-79
2021/06/11 06:26:27;;;;;;;;;;;;;;;16.44;100.00;99083.72;5054103;28;19925;-79
2021/06/11 06:28:54;;;;;;;;;;;;;;;16.56;100.00;99085.66;5054163;28;19935;-79
2021/06/11 06:31:21;;;;;;;;;;;;;;;16.57;100.00;99087.25;5054321;28;19925;-81
2021/06/11 06:33:49;;;;;;;;;;;;;;;16.71;100.00;99089.50;5053083;28;19929;-82
2021/06/11 06:36:16;;;;;;;;;;;;;;;16.92;100.00;99102.78;5054133;28;19925;-82
2021/06/11 06:38:45;;;;;;;;;;;;;;;17.16;100.00;99096.06;5019996;28;19925;-82
2021/06/11 06:41:12;;;;;;;;;;;;;;;17.36;100.00;99101.28;5054146;28;19925;-84
2021/06/11 06:43:39;;;;;;;;;;;;;;;17.34;100.00;99090.47;5054362;28;20267;-85
2021/06/11 06:46:08;;;;;;;;;;;;;;;17.14;100.00;99094.97;5054593;28;19971;-83
2021/06/11 06:48:36;;;;;;;;;;;;;;;16.89;100.00;99096.00;5036847;28;19929;-83
2021/06/11 06:51:03;;;;;;;;;;;;;;;16.75;100.00;99101.44;5036038;28;19932;-83
2021/06/11 06:53:30;;;;;;;;;;;;;;;16.65;100.00;99099.81;5036038;28;19924;-83
2021/06/11 06:55:57;;;;;;;;;;;;;;;16.58;100.00;99114.22;5015576;28;19924;-81
2021/06/11 06:58:25;;;;;;;;;;;;;;;16.59;100.00;99110.13;5053546;28;20384;-82
2021/06/11 07:00:52;;;;;;;;;;;;;;;16.60;100.00;99114.53;5034269;28;19925;-82
2021/06/11 07:03:20;;;;;;;;;;;;;;;16.71;100.00;99110.03;5041297;28;20271;-82
2021/06/11 07:05:47;;;;;;;;;;;;;;;16.70;100.00;99113.31;5056402;28;20020;-82
2021/06/11 07:08:14;;;;;;;;;;;;;;;16.66;100.00;99115.50;5053954;28;19925;-82
2021/06/11 07:10:42;;;;;;;;;;;;;;;16.65;100.00;99111.09;5053776;28;19931;-82
2021/06/11 07:13:12;;;;;;;;;;;;;;;16.74;100.00;99116.78;5036127;28;19958;-82
2021/06/11 07:15:39;;;;;;;;;;;;;;;16.73;100.00;99129.31;5069195;28;19932;-81
2021/06/11 07:18:07;;;;;;;;;;;;;;;16.72;100.00;99127.75;5069278;28;19925;-82
2021/06/11 07:20:59;;;;;;;;;;;;;;;16.59;100.00;99132.69;5035793;28;19925;-82
2021/06/11 07:23:27;;;;;;;;;;;;;;;16.43;100.00;99124.44;5021572;28;19929;-82
2021/06/11 07:25:53;;;;;;;;;;;;;;;16.40;100.00;99128.97;5047177;28;20360;-82
2021/06/11 07:28:21;;;;;;;;;;;;;;;16.33;100.00;99129.22;5053905;28;19925;-82
2021/06/11 07:30:47;;;;;;;;;;;;;;;16.19;100.00;99139.00;5053718;28;19939;-83
2021/06/11 07:33:15;;;;;;;;;;;;;;;16.15;100.00;99141.19;5035543;28;19931;-81
2021/06/11 07:35:42;;;;;;;;;;;;;;;16.09;100.00;99143.03;5053546;28;20348;-83
2021/06/11 07:38:09;;;;;;;;;;;;;;;16.05;100.00;99142.34;5068959;28;19971;-82
2021/06/11 07:40:45;;;;;;;;;;;;;;;16.06;100.00;99148.78;5004100;28;19968;-83
2021/06/11 07:43:13;;;;;;;;;;;;;;;15.99;100.00;99149.81;5034590;28;20018;-83
2021/06/11 07:45:40;;;;;;;;;;;;;;;15.94;100.00;99149.63;5044428;28;19925;-83
2021/06/11 07:48:07;;;;;;;;;;;;;;;15.86;100.00;99151.13;5019622;28;19931;-83
2021/06/11 07:50:34;;;;;;;;;;;;;;;15.87;100.00;99150.66;5034941;28;19935;-83
2021/06/11 07:53:02;;;;;;;;;;;;;;;15.82;100.00;99140.00;5036174;28;19928;-83
2021/06/11 07:55:29;;;;;;;;;;;;;;;15.82;100.00;99145.63;5035435;28;19933;-83
2021/06/11 07:57:56;;;;;;;;;;;;;;;15.84;100.00;99148.00;5058657;28;19925;-83
2021/06/11 08:00:24;;;;;;;;;;;;;;;15.83;100.00;99146.41;5053394;28;19925;-82
2021/06/11 08:02:58;;;;;;;;;;;;;;;15.83;100.00;99144.38;5072661;28;19948;-83
2021/06/11 08:05:26;;;;;;;;;;;;;;;15.88;100.00;99134.56;5054790;28;19956;-83
2021/06/11 08:07:54;;;;;;;;;;;;;;;15.84;100.00;99137.50;5069127;28;19925;-83
2021/06/11 08:10:21;;;;;;;;;;;;;;;15.84;100.00;99133.91;5037330;28;20445;-82
2021/06/11 08:12:48;;;;;;;;;;;;;;;15.91;100.00;99137.25;5056688;28;20011;-89
2021/06/11 08:15:16;;;;;;;;;;;;;;;15.93;100.00;99129.09;5022919;28;19925;-86
2021/06/11 08:17:43;;;;;;;;;;;;;;;15.97;100.00;99120.53;5022703;28;19924;-84
2021/06/11 08:20:12;;;;;;;;;;;;;;;16.07;100.00;99122.97;5039011;28;19932;-83
2021/06/11 08:22:39;;;;;;;;;;;;;;;16.13;100.00;99121.13;5039107;28;19983;-83
2021/06/11 08:25:07;;;;;;;;;;;;;;;16.13;100.00;99121.13;5055831;28;20023;-84
2021/06/11 08:27:36;;;;;;;;;;;;;;;16.16;100.00;99114.56;5038610;28;19978;-83
2021/06/11 08:30:05;;;;;;;;;;;;;;;16.30;100.00;99121.69;5051356;28;19975;-91
2021/06/11 08:32:46;;;;;;;;;;;;;;;16.44;100.00;99092.19;5017705;28;19929;-91
2021/06/11 08:35:13;;;;;;;;;;;;;;;16.73;100.00;99098.28;5037392;28;19925;-93
2021/06/11 08:37:40;;;;;;;;;;;;;;;17.05;100.00;99094.97;5040392;28;19932;-90
2021/06/11 08:40:07;;;;;;;;;;;;;;;17.18;100.00;99081.50;5033871;28;20017;-91
2021/06/11 08:42:36;;;;;;;;;;;;;;;17.13;100.00;99073.66;5037032;28;20264;-92
2021/06/11 08:45:05;;;;;;;;;;;;;;;16.99;100.00;99063.75;5037131;28;19991;-91
2021/06/11 08:47:32;;;;;;;;;;;;;;;17.30;100.00;99080.56;5019950;28;19925;-81
2021/06/11 08:50:01;;;;;;;;;;;;;;;17.56;100.00;99067.75;5052376;28;19925;-80
2021/06/11 08:52:28;;;;;;;;;;;;;;;17.82;100.00;99058.50;5076387;28;19948;-82
2021/06/11 08:54:55;;;;;;;;;;;;;;;18.17;100.00;99055.31;5053807;28;20299;-83
2021/06/11 08:57:23;;;;;;;;;;;;;;;18.55;100.00;99056.31;5035431;28;19935;-83
2021/06/11 08:59:52;;;;;;;;;;;;;;;18.63;100.00;99060.34;5052977;28;19983;-81
2021/06/11 09:02:20;;;;;;;;;;;;;;;18.58;100.00;99069.53;5035768;28;19976;-88
2021/06/11 09:04:54;;;;;;;;;;;;;;;18.52;100.00;99064.97;5053995;28;20576;-87
2021/06/11 09:07:23;;;;;;;;;;;;;;;18.48;100.00;99065.13;5035339;28;20020;-85
2021/06/11 09:09:51;;;;;;;;;;;;;;;18.43;100.00;99060.13;5064344;28;19925;-84
2021/06/11 09:12:37;;;;;;;;;;;;;;;18.31;100.00;99066.72;5035504;28;19924;-83
2021/06/11 09:15:07;;;;;;;;;;;;;;;18.25;100.00;99071.44;5035392;28;19931;-82
2021/06/11 09:17:50;;;;;;;;;;;;;;;17.98;100.00;99082.81;5035624;28;20010;-81
2021/06/11 09:20:18;;;;;;;;;;;;;;;17.87;100.00;99079.72;5053365;28;20019;-89
2021/06/11 09:22:50;;;;;;;;;;;;;;;17.61;100.00;99092.56;5032883;28;19928;-84
2021/06/11 09:25:23;;;;;;;;;;;;;;;17.42;100.00;99090.94;5037776;28;19983;-87
2021/06/11 09:27:55;;;;;;;;;;;;;;;17.13;100.00;99107.53;5067088;28;19986;-87
2021/06/11 09:30:25;;;;;;;;;;;;;;;17.08;100.00;99111.75;5013887;28;19932;-83
2021/06/11 09:33:00;;;;;;;;;;;;;;;16.90;100.00;99110.91;5055220;28;19932;-81
2021/06/11 09:35:31;;;;;;;;;;;;;;;16.80;100.00;99118.53;5037320;28;19933;-84
2021/06/11 09:38:09;;;;;;;;;;;;;;;16.82;100.00;99120.91;5051130;28;19925;-78
2021/06/11 09:40:36;;;;;;;;;;;;;;;16.78;100.00;99131.56;5051346;28;19931;-79
2021/06/11 09:43:05;;;;;;;;;;;;;;;16.81;100.00;99130.63;5061941;28;19925;-81
2021/06/11 09:45:40;;;;;;;;;;;;;;;16.76;100.00;99128.41;5050619;28;19956;-81
2021/06/11 09:48:17;;;;;;;;;;;;;;;16.77;100.00;99133.56;5052119;28;20392;-80
2021/06/11 09:50:49;;;;;;;;;;;;;;;16.78;100.00;99126.69;5020371;28;19976;-79
2021/06/11 09:53:22;;;;;;;;;;;;;;;16.79;100.00;99139.56;5051357;28;19986;-84
2021/06/11 09:55:54;;;;;;;;;;;;;;;16.81;100.00;99136.28;5040398;28;20398;-91
2021/06/11 09:58:28;;;;;;;;;;;;;;;16.83;100.00;99139.38;5033509;28;19929;-83
2021/06/11 10:00:57;;;;;;;;;;;;;;;16.85;100.00;99131.25;5027031;28;20348;-84
2021/06/11 10:03:29;;;;;;;;;;;;;;;16.92;100.00;99128.94;5019794;28;19933;-82
2021/06/11 10:05:59;;;;;;;;;;;;;;;17.00;100.00;99135.06;5050629;28;19948;-81
2021/06/11 10:08:26;;;;;;;;;;;;;;;16.97;100.00;99133.19;5050396;28;19960;-81
2021/06/11 10:10:54;;;;;;;;;;;;;;;16.94;100.00;99140.56;5051149;28;19967;-80
2021/06/11 10:13:22;;;;;;;;;;;;;;;16.94;100.00;99140.56;5050411;28;19967;-81
2021/06/11 10:15:51;;;;;;;;;;;;;;;17.03;100.00;99139.78;5031349;28;19925;-81
2021/06/11 10:18:18;;;;;;;;;;;;;;;17.03;100.00;99142.63;5032111;28;19936;-80
2021/06/11 10:20:45;;;;;;;;;;;;;;;17.04;100.00;99150.63;5034576;28;19976;-80
2021/06/11 10:23:14;;;;;;;;;;;;;;;17.22;100.00;99144.25;5036468;28;20028;-81
2021/06/11 10:25:44;;;;;;;;;;;;;;;17.31;100.00;99133.00;5051401;28;20490;-88
2021/06/11 10:28:12;;;;;;;;;;;;;;;17.50;100.00;99126.94;5050509;28;19925;-85
2021/06/11 10:30:39;;;;;;;;;;;;;;;17.49;100.00;99130.22;5033569;28;20022;-85
2021/06/11 10:33:07;;;;;;;;;;;;;;;17.45;100.00;99126.75;5033382;28;19925;-85
2021/06/11 10:35:37;;;;;;;;;;;;;;;17.69;100.00;99116.44;5068100;28;19930;-87
2021/06/11 10:38:04;;;;;;;;;;;;;;;17.79;100.00;99132.94;5036570;28;19931;-84
2021/06/11 10:40:32;;;;;;;;;;;;;;;17.89;100.00;99120.38;5051309;28;19932;-84
2021/06/11 10:43:17;;;;;;;;;;;;;;;18.11;100.00;99113.75;5035848;28;20380;-88
2021/06/11 10:45:45;;;;;;;;;;;;;;;18.19;100.00;99115.78;5020170;28;19925;-87
2021/06/11 10:48:13;;;;;;;;;;;;;;;18.11;100.00;99120.19;5050347;28;20439;-88
2021/06/11 10:50:40;;;;;;;;;;;;;;;18.14;100.00;99113.59;5066141;28;19933;-79
2021/06/11 10:53:11;;;;;;;;;;;;;;;18.22;100.00;99120.47;5045954;28;19948;-81
2021/06/11 10:55:48;;;;;;;;;;;;;;;18.48;100.00;99121.72;5051326;28;19932;-90
2021/06/11 10:58:15;;;;;;;;;;;;;;;18.53;100.00;99134.44;5034012;28;19963;-83
2021/06/11 11:00:43;;;;;;;;;;;;;;;18.75;100.00;99135.78;5016511;28;20619;-80
2021/06/11 11:03:27;;;;;;;;;;;;;;;19.02;100.00;99121.50;5065191;28;19952;-80
2021/06/11 11:05:54;;;;;;;;;;;;;;;19.32;100.00;99123.28;5048104;28;19928;-80
2021/06/11 11:08:22;;;;;;;;;;;;;;;19.32;100.00;99111.97;5051847;28;19925;-82
2021/06/11 11:10:52;;;;;;;;;;;;;;;19.43;100.00;99103.69;5050962;28;19925;-87
2021/06/11 11:13:29;;;;;;;;;;;;;;;19.38;100.00;99101.53;5050127;28;20292;-79
2021/06/11 11:15:57;;;;;;;;;;;;;;;19.48;100.00;99107.91;5049073;28;19933;-81
2021/06/11 11:18:33;;;;;;;;;;;;;;;19.65;100.00;99107.00;5042070;28;20019;-81
2021/06/11 11:21:20;;;;;;;;;;;;;;;19.77;100.00;99104.38;5054035;28;19928;-81
2021/06/11 11:23:51;;;;;;;;;;;;;;;19.62;100.00;99107.97;5041228;28;19925;-82
2021/06/11 11:26:20;;;;;;;;;;;;;;;19.75;100.00;99104.09;5032511;28;19955;-83
2021/06/11 11:28:47;;;;;;;;;;;;;;;19.85;100.00;99108.41;5022588;28;20443;-82
2021/06/11 11:31:15;;;;;;;;;;;;;;;19.62;100.00;99098.69;5055481;28;20023;-83
2021/06/11 11:33:42;;;;;;;;;;;;;;;19.45;100.00;99098.31;5042813;28;20334;-84
2021/06/11 11:36:10;;;;;;;;;;;;;;;19.36;100.00;99103.25;5053115;28;19925;-79
2021/06/11 11:38:37;;;;;;;;;;;;;;;19.27;100.00;99104.13;5047680;28;20039;-79
2021/06/11 11:41:04;;;;;;;;;;;;;;;19.22;100.00;99107.56;5038137;28;19924;-79
2021/06/11 11:43:31;;;;;;;;;;;;;;;19.45;100.00;99109.66;5042786;28;19932;-79
2021/06/11 11:45:59;;;;;;;;;;;;;;;19.43;100.00;99109.34;5060118;28;19929;-79
2021/06/11 11:48:26;;;;;;;;;;;;;;;19.32;100.00;99111.97;5057172;28;19924;-79
2021/06/11 11:50:53;;;;;;;;;;;;;;;19.15;100.00;99107.13;5044984;28;19932;-79
2021/06/11 11:53:24;;;;;;;;;;;;;;;18.99;100.00;99119.63;5056991;28;19944;-79
2021/06/11 11:55:51;;;;;;;;;;;;;;;19.11;100.00;99130.00;5067076;28;19929;-79
2021/06/11 11:58:23;;;;;;;;;;;;;;;19.14;100.00;99122.56;5056544;28;19949;-79
2021/06/11 12:00:50;;;;;;;;;;;;;;;18.92;100.00;99124.88;5080078;28;19946;-79
2021/06/11 12:03:17;;;;;;;;;;;;;;;19.12;100.00;99131.53;5038890;28;20367;-79
2021/06/11 12:05:45;;;;;;;;;;;;;;;19.31;100.00;99130.19;5042269;28;19937;-79
2021/06/11 12:08:12;;;;;;;;;;;;;;;19.66;100.00;99128.41;5056871;28;19924;-79
2021/06/11 12:10:39;;;;;;;;;;;;;;;19.66;100.00;99124.78;5056551;28;19931;-79
2021/06/11 12:13:06;;;;;;;;;;;;;;;19.48;100.00;99117.19;5056889;28;20279;-79
2021/06/11 12:15:33;;;;;;;;;;;;;;;19.35;100.00;99130.81;5056731;28;19971;-79
2021/06/11 12:18:01;;;;;;;;;;;;;;;19.40;100.00;99138.66;5072284;28;20015;-79
2021/06/11 12:20:32;;;;;;;;;;;;;;;19.35;100.00;99130.03;5071972;28;19925;-79
2021/06/11 12:23:00;;;;;;;;;;;;;;;19.58;100.00;99127.19;5056420;28;19925;-78
2021/06/11 12:25:27;;;;;;;;;;;;;;;19.46;100.00;99122.56;5056358;28;20279;-78
2021/06/11 12:27:55;;;;;;;;;;;;;;;19.73;100.00;99130.88;5056321;28;19972;-78
2021/06/11 12:30:22;;;;;;;;;;;;;;;19.91;100.00;99129.16;5056448;28;19924;-78
2021/06/11 12:32:49;;;;;;;;;;;;;;;19.73;100.00;99145.03;5056056;28;19931;-80
2021/06/11 12:35:16;;;;;;;;;;;;;;;19.59;100.00;99142.94;5029820;28;19932;-80
2021/06/11 12:37:44;;;;;;;;;;;;;;;19.49;100.00;99141.44;5072218;28;19995;-78
2021/06/11 12:40:14;;;;;;;;;;;;;;;19.35;100.00;99127.19;5047073;28;19924;-80
2021/06/11 12:42:44;;;;;;;;;;;;;;;19.47;100.00;99137.50;5070760;28;20372;-80
2021/06/11 12:45:13;;;;;;;;;;;;;;;19.65;100.00;99145.91;5055616;28;19925;-80
2021/06/11 12:47:40;;;;;;;;;;;;;;;19.73;100.00;99145.03;5050061;28;19931;-82
2021/06/11 12:50:08;;;;;;;;;;;;;;;19.52;100.00;99148.97;5054561;28;19932;-80
2021/06/11 12:52:35;;;;;;;;;;;;;;;19.40;100.00;99147.16;5038103;28;19936;-80
2021/06/11 12:55:03;;;;;;;;;;;;;;;19.51;100.00;99155.09;5055470;28;20569;-80
2021/06/11 12:57:30;;;;;;;;;;;;;;;19.62;100.00;99170.31;5055689;28;19928;-80